Vremea acum in Craiova - Romania

Vrei sa afli care e starea vremii acum in Dolj - Romania? Dorim sa iti furnizam starea vremii pentru Dolj - Romania. Starea vremii Dolj - Romania pentru astazi.

Vremea acum in Craiova

Temperatura: 16 °C

Se simte ca: 16 °C
Innorat: 25 %
Precipitatii: 0 %
Presiune atmosferica: 1018 hPa
Umiditate: 72%
Vizibilitate: 7 km
Vantul bate din WSW cu 6.1 km/h

Evolutia vremii in Craiova pe ore

Ora: 21:00
Parțial noros
Temperatura: 16.8°C
Sansa de precipitatii: 0%
Ora Descriere Temp Se simte Precipitatii Umiditate Vant
00:00Parțial noros15.5°15.4°0%66%ENE 8.3 KM/H
01:00Parțial noros15.1°14.9°0%69%NE 8.3 KM/H
02:00Parțial noros14.6°14.3°0%71%NE 8.6 KM/H
03:00Parțial noros14.3°14.1°0%72%NE 7.9 KM/H
04:00Parțial noros14°13.8°0%73%NE 7.6 KM/H
05:00Parțial noros13.7°13.6°0%74%NE 6.8 KM/H
06:00Parțial noros14.2°14.2°0%71%NE 5.4 KM/H
07:00Parțial noros14.8°14.7°0%69%NE 3.6 KM/H
08:00Parțial noros15.3°15.3°0%67%NE 2.2 KM/H
09:00Parțial noros16.5°16.5°0%63%ESE 2.9 KM/H
10:00Parțial noros17.7°17.7°0%59%SSW 4 KM/H
11:00Parțial noros18.9°18.9°0%55%W 4.7 KM/H
12:00Parțial noros19.7°19.7°0%51%W 5.4 KM/H
13:00Parțial noros20.6°20.6°0%46%WNW 6.5 KM/H
14:00Parțial noros21.4°21.4°0%42%WNW 7.2 KM/H
15:00Parțial noros20.8°20.8°0%44%WNW 6.8 KM/H
16:00Parțial noros20.3°20.3°0%45%WNW 6.5 KM/H
17:00Parțial noros19.7°19.7°0%46%WNW 6.1 KM/H
18:00Parțial noros18.9°18.9°0%49%NW 5.4 KM/H
19:00Parțial noros18.1°18.1°0%52%NW 5 KM/H
20:00Parțial noros17.3°17.3°0%55%NNW 4.3 KM/H
21:00Parțial noros16.8°16.8°0%57%NNW 3.2 KM/H
22:00Parțial noros16.2°16.2°0%58%NNW 1.8 KM/H
23:00Parțial noros15.7°15.7°0%60%NW 0.7 KM/H